RYR47FF LEPA-LPPR
Flight info
| Callsign | RYR47FF |
|---|---|
| Flight time | 1h 41m |
| Altitude | 37000 |
| Route | EPAMA N733 ZMR L155 ADORO DCT INKIT |
| Aircraft | B38M/M-SDE1FGHILORVWXY/HB1 |
Departure
| Time | 2026-05-07 20:32 |
|---|---|
| Airport | Palma de Mallorca Airport (LEPA) |
Arrival
| Time | 2026-05-07 22:13 |
|---|---|
| Airport | Francisco de Sá Carneiro Airport (LPPR) |
| Time | Latitude | Longitude | Altitude | Speed | Heading |
|---|---|---|---|---|---|
| 2026-05-07 20:03 | 39.55133 | 2.72970 | 32 ft | 0 kts | 165° |
| 2026-05-07 20:07 | 39.55134 | 2.72970 | 32 ft | 0 kts | 165° |
| 2026-05-07 20:14 | 39.55153 | 2.72962 | 32 ft | 4 kts | 158° |
| 2026-05-07 20:14 | 39.55177 | 2.72947 | 32 ft | 4 kts | 142° |
| 2026-05-07 20:14 | 39.55191 | 2.72924 | 32 ft | 4 kts | 100° |
| 2026-05-07 20:15 | 39.55190 | 2.72910 | 32 ft | 1 kts | 58° |
| 2026-05-07 20:23 | 39.55190 | 2.72909 | 32 ft | 0 kts | 58° |
| 2026-05-07 20:24 | 39.55200 | 2.72931 | 32 ft | 7 kts | 58° |
| 2026-05-07 20:24 | 39.55239 | 2.73013 | 32 ft | 15 kts | 58° |
| 2026-05-07 20:24 | 39.55305 | 2.73153 | 32 ft | 22 kts | 58° |
| 2026-05-07 20:25 | 39.55391 | 2.73334 | 32 ft | 25 kts | 58° |
| 2026-05-07 20:25 | 39.55477 | 2.73516 | 32 ft | 18 kts | 58° |
| 2026-05-07 20:25 | 39.55501 | 2.73580 | 32 ft | 1 kts | 95° |
| 2026-05-07 20:25 | 39.55499 | 2.73586 | 32 ft | 2 kts | 114° |
| 2026-05-07 20:26 | 39.55475 | 2.73616 | 32 ft | 8 kts | 139° |
| 2026-05-07 20:26 | 39.55408 | 2.73670 | 32 ft | 15 kts | 149° |
| 2026-05-07 20:26 | 39.55303 | 2.73751 | 32 ft | 21 kts | 149° |
| 2026-05-07 20:26 | 39.55160 | 2.73864 | 32 ft | 27 kts | 148° |
| 2026-05-07 20:27 | 39.55000 | 2.73990 | 32 ft | 14 kts | 148° |
| 2026-05-07 20:27 | 39.54979 | 2.74006 | 32 ft | 5 kts | 149° |
| 2026-05-07 20:27 | 39.54930 | 2.74044 | 32 ft | 12 kts | 148° |
| 2026-05-07 20:27 | 39.54841 | 2.74116 | 32 ft | 18 kts | 151° |
| 2026-05-07 20:28 | 39.54770 | 2.74094 | 32 ft | 8 kts | 249° |
| 2026-05-07 20:28 | 39.54732 | 2.74003 | 32 ft | 15 kts | 238° |
| 2026-05-07 20:28 | 39.54665 | 2.73861 | 32 ft | 22 kts | 239° |
| 2026-05-07 20:28 | 39.54575 | 2.73667 | 32 ft | 28 kts | 239° |
| 2026-05-07 20:29 | 39.54470 | 2.73449 | 32 ft | 20 kts | 237° |
| 2026-05-07 20:29 | 39.54403 | 2.73311 | 33 ft | 20 kts | 241° |
| 2026-05-07 20:29 | 39.54327 | 2.73145 | 33 ft | 21 kts | 237° |
| 2026-05-07 20:29 | 39.54285 | 2.73063 | 33 ft | 9 kts | 237° |
| 2026-05-07 20:30 | 39.54256 | 2.73001 | 33 ft | 7 kts | 238° |
| 2026-05-07 20:30 | 39.54233 | 2.72954 | 33 ft | 5 kts | 234° |
| 2026-05-07 20:30 | 39.54210 | 2.72931 | 33 ft | 3 kts | 204° |
| 2026-05-07 20:30 | 39.54188 | 2.72929 | 33 ft | 4 kts | 170° |
| 2026-05-07 20:31 | 39.54166 | 2.72949 | 33 ft | 5 kts | 125° |
| 2026-05-07 20:31 | 39.54153 | 2.73018 | 33 ft | 11 kts | 94° |
| 2026-05-07 20:31 | 39.54151 | 2.73142 | 33 ft | 17 kts | 91° |
| 2026-05-07 20:31 | 39.54188 | 2.73300 | 33 ft | 21 kts | 59° |
| 2026-05-07 20:32 | 39.54285 | 2.73500 | 33 ft | 33 kts | 60° |
| 2026-05-07 20:32 | 39.54559 | 2.74084 | 33 ft | 117 kts | 58° |
| 2026-05-07 20:32 | 39.55107 | 2.75230 | 225 ft | 171 kts | 59° |
| 2026-05-07 20:32 | 39.55764 | 2.76642 | 972 ft | 196 kts | 58° |
| 2026-05-07 20:33 | 39.56517 | 2.78250 | 1638 ft | 217 kts | 59° |
| 2026-05-07 20:33 | 39.57327 | 2.80005 | 2116 ft | 236 kts | 59° |
| 2026-05-07 20:33 | 39.58159 | 2.81822 | 3182 ft | 228 kts | 60° |
| 2026-05-07 20:33 | 39.58941 | 2.83534 | 4453 ft | 215 kts | 60° |
| 2026-05-07 20:34 | 39.59703 | 2.85194 | 5403 ft | 215 kts | 60° |
| 2026-05-07 20:34 | 39.60481 | 2.86883 | 6143 ft | 220 kts | 60° |
| 2026-05-07 20:34 | 39.61273 | 2.88603 | 6892 ft | 224 kts | 60° |
| 2026-05-07 20:34 | 39.62081 | 2.90341 | 7699 ft | 226 kts | 57° |
| 2026-05-07 20:35 | 39.63216 | 2.91702 | 8422 ft | 231 kts | 24° |
| 2026-05-07 20:35 | 39.64810 | 2.91900 | 9145 ft | 238 kts | 347° |
| 2026-05-07 20:35 | 39.66221 | 2.90756 | 9815 ft | 247 kts | 308° |
| 2026-05-07 20:35 | 39.66900 | 2.88715 | 10517 ft | 250 kts | 282° |
| 2026-05-07 20:36 | 39.67250 | 2.86478 | 11153 ft | 257 kts | 284° |
| 2026-05-07 20:36 | 39.67665 | 2.84200 | 11871 ft | 261 kts | 284° |
| 2026-05-07 20:36 | 39.68048 | 2.81893 | 12678 ft | 263 kts | 281° |
| 2026-05-07 20:36 | 39.68334 | 2.79547 | 13471 ft | 265 kts | 277° |
| 2026-05-07 20:37 | 39.68495 | 2.77123 | 13912 ft | 271 kts | 272° |
| 2026-05-07 20:37 | 39.68508 | 2.74673 | 13950 ft | 277 kts | 266° |
| 2026-05-07 20:37 | 39.68360 | 2.72086 | 14159 ft | 295 kts | 265° |
| 2026-05-07 20:37 | 39.68210 | 2.69342 | 14552 ft | 314 kts | 265° |
| 2026-05-07 20:38 | 39.68057 | 2.66428 | 14864 ft | 334 kts | 265° |
| 2026-05-07 20:38 | 39.67899 | 2.63353 | 15307 ft | 348 kts | 265° |
| 2026-05-07 20:38 | 39.67792 | 2.61256 | 15690 ft | 354 kts | 265° |
| 2026-05-07 20:38 | 39.67631 | 2.58105 | 16531 ft | 354 kts | 265° |
| 2026-05-07 20:39 | 39.67466 | 2.54891 | 17274 ft | 358 kts | 264° |
| 2026-05-07 20:39 | 39.67298 | 2.51643 | 17976 ft | 362 kts | 264° |
| 2026-05-07 20:39 | 39.67127 | 2.48379 | 18638 ft | 364 kts | 264° |
| 2026-05-07 20:39 | 39.66955 | 2.45084 | 19268 ft | 367 kts | 264° |
| 2026-05-07 20:40 | 39.66781 | 2.41778 | 19893 ft | 369 kts | 264° |
| 2026-05-07 20:40 | 39.66605 | 2.38454 | 20513 ft | 371 kts | 264° |
| 2026-05-07 20:40 | 39.66426 | 2.35097 | 21121 ft | 374 kts | 263° |
| 2026-05-07 20:40 | 39.66245 | 2.31723 | 21732 ft | 376 kts | 263° |
| 2026-05-07 20:41 | 39.66061 | 2.28312 | 22339 ft | 379 kts | 263° |
| 2026-05-07 20:41 | 39.65878 | 2.24932 | 22928 ft | 381 kts | 263° |
| 2026-05-07 20:41 | 39.65691 | 2.21485 | 23499 ft | 384 kts | 263° |
| 2026-05-07 20:41 | 39.65501 | 2.18014 | 23984 ft | 387 kts | 263° |
| 2026-05-07 20:42 | 39.65309 | 2.14527 | 24451 ft | 389 kts | 263° |
| 2026-05-07 20:42 | 39.65114 | 2.11009 | 24917 ft | 392 kts | 263° |
| 2026-05-07 20:42 | 39.64918 | 2.07488 | 25371 ft | 394 kts | 263° |
| 2026-05-07 20:42 | 39.64718 | 2.03927 | 25822 ft | 396 kts | 263° |
| 2026-05-07 20:43 | 39.64517 | 2.00351 | 26263 ft | 399 kts | 263° |
| 2026-05-07 20:43 | 39.64313 | 1.96752 | 26692 ft | 401 kts | 263° |
| 2026-05-07 20:43 | 39.64107 | 1.93128 | 27120 ft | 404 kts | 263° |
| 2026-05-07 20:43 | 39.63899 | 1.89478 | 27553 ft | 406 kts | 263° |
| 2026-05-07 20:44 | 39.63691 | 1.85857 | 28030 ft | 407 kts | 263° |
| 2026-05-07 20:44 | 39.63478 | 1.82186 | 28465 ft | 408 kts | 263° |
| 2026-05-07 20:44 | 39.63264 | 1.78504 | 28880 ft | 410 kts | 263° |
| 2026-05-07 20:44 | 39.63048 | 1.74812 | 29288 ft | 412 kts | 263° |
| 2026-05-07 20:45 | 39.62829 | 1.71090 | 29684 ft | 414 kts | 263° |
| 2026-05-07 20:45 | 39.62608 | 1.67355 | 30073 ft | 416 kts | 263° |
| 2026-05-07 20:45 | 39.62387 | 1.63642 | 30407 ft | 417 kts | 263° |
| 2026-05-07 20:45 | 39.62163 | 1.59892 | 30788 ft | 418 kts | 264° |
| 2026-05-07 20:46 | 39.61937 | 1.56128 | 31177 ft | 418 kts | 264° |
| 2026-05-07 20:46 | 39.61710 | 1.52377 | 31570 ft | 417 kts | 264° |
| 2026-05-07 20:46 | 39.61482 | 1.48636 | 32082 ft | 414 kts | 265° |
| 2026-05-07 20:46 | 39.61255 | 1.44921 | 32567 ft | 411 kts | 266° |
| 2026-05-07 20:47 | 39.61029 | 1.41237 | 33019 ft | 409 kts | 266° |
| 2026-05-07 20:47 | 39.60803 | 1.37575 | 33548 ft | 405 kts | 266° |
| 2026-05-07 20:47 | 39.60578 | 1.33945 | 34063 ft | 401 kts | 267° |
| 2026-05-07 20:47 | 39.60354 | 1.30352 | 34486 ft | 398 kts | 266° |
| 2026-05-07 20:48 | 39.60134 | 1.26820 | 34807 ft | 398 kts | 266° |
| 2026-05-07 20:48 | 39.59909 | 1.23248 | 35125 ft | 397 kts | 266° |
| 2026-05-07 20:48 | 39.59684 | 1.19683 | 35441 ft | 397 kts | 266° |
| 2026-05-07 20:48 | 39.59456 | 1.16109 | 35733 ft | 397 kts | 266° |
| 2026-05-07 20:49 | 39.59228 | 1.12548 | 36016 ft | 396 kts | 266° |
| 2026-05-07 20:49 | 39.59000 | 1.09002 | 36315 ft | 395 kts | 266° |
| 2026-05-07 20:49 | 39.58772 | 1.05457 | 36596 ft | 395 kts | 266° |
| 2026-05-07 20:49 | 39.58542 | 1.01906 | 36850 ft | 395 kts | 266° |
| 2026-05-07 20:50 | 39.58311 | 0.98354 | 36977 ft | 396 kts | 266° |
| 2026-05-07 20:50 | 39.57845 | 0.91259 | 36977 ft | 393 kts | 266° |
| 2026-05-07 20:51 | 39.57377 | 0.84193 | 36962 ft | 392 kts | 266° |
| 2026-05-07 20:51 | 39.56913 | 0.77242 | 36968 ft | 390 kts | 266° |
| 2026-05-07 20:52 | 39.56442 | 0.70260 | 36968 ft | 387 kts | 267° |
| 2026-05-07 20:52 | 39.55971 | 0.63318 | 36971 ft | 386 kts | 267° |
| 2026-05-07 20:53 | 39.55542 | 0.56378 | 36971 ft | 386 kts | 268° |
| 2026-05-07 20:53 | 39.55107 | 0.49421 | 36971 ft | 386 kts | 268° |
| 2026-05-07 20:54 | 39.54672 | 0.42543 | 36969 ft | 386 kts | 268° |
| 2026-05-07 20:54 | 39.54227 | 0.35570 | 36977 ft | 385 kts | 267° |
| 2026-05-07 20:55 | 39.53784 | 0.28697 | 36968 ft | 381 kts | 267° |
| 2026-05-07 20:55 | 39.53341 | 0.21858 | 36969 ft | 382 kts | 267° |
| 2026-05-07 20:56 | 39.52896 | 0.15046 | 36970 ft | 382 kts | 267° |
| 2026-05-07 20:56 | 39.52444 | 0.08196 | 36971 ft | 381 kts | 267° |
| 2026-05-07 20:57 | 39.51988 | 0.01352 | 36967 ft | 381 kts | 267° |
| 2026-05-07 20:57 | 39.51528 | -0.05509 | 36969 ft | 382 kts | 267° |
| 2026-05-07 20:58 | 39.51063 | -0.12367 | 36974 ft | 382 kts | 267° |
| 2026-05-07 20:58 | 39.50595 | -0.19212 | 36982 ft | 382 kts | 267° |
| 2026-05-07 20:59 | 39.50125 | -0.26032 | 36984 ft | 382 kts | 267° |
| 2026-05-07 20:59 | 39.49648 | -0.32892 | 36990 ft | 382 kts | 267° |
| 2026-05-07 21:00 | 39.49167 | -0.39751 | 36991 ft | 382 kts | 267° |
| 2026-05-07 21:00 | 39.48813 | -0.46558 | 36983 ft | 380 kts | 276° |
| 2026-05-07 21:00 | 39.49448 | -0.49849 | 36998 ft | 379 kts | 292° |
| 2026-05-07 21:01 | 39.50679 | -0.52881 | 36986 ft | 383 kts | 296° |
| 2026-05-07 21:01 | 39.53272 | -0.58907 | 37001 ft | 384 kts | 296° |
| 2026-05-07 21:02 | 39.55917 | -0.64930 | 37001 ft | 384 kts | 296° |
| 2026-05-07 21:02 | 39.58562 | -0.70929 | 37011 ft | 384 kts | 297° |
| 2026-05-07 21:03 | 39.61213 | -0.76950 | 36992 ft | 384 kts | 296° |
| 2026-05-07 21:03 | 39.63848 | -0.82951 | 36991 ft | 383 kts | 296° |
| 2026-05-07 21:04 | 39.66463 | -0.88915 | 36995 ft | 383 kts | 296° |
| 2026-05-07 21:04 | 39.69096 | -0.94933 | 36966 ft | 382 kts | 296° |
| 2026-05-07 21:05 | 39.71721 | -1.00952 | 36968 ft | 383 kts | 296° |
| 2026-05-07 21:05 | 39.74336 | -1.06965 | 36966 ft | 382 kts | 296° |
| 2026-05-07 21:06 | 39.76959 | -1.12977 | 36959 ft | 383 kts | 296° |
| 2026-05-07 21:06 | 39.79561 | -1.18945 | 36968 ft | 382 kts | 296° |
| 2026-05-07 21:07 | 39.82180 | -1.24976 | 36980 ft | 384 kts | 296° |
| 2026-05-07 21:07 | 39.84806 | -1.31040 | 36994 ft | 384 kts | 296° |
| 2026-05-07 21:08 | 39.87422 | -1.37092 | 36983 ft | 383 kts | 296° |
| 2026-05-07 21:08 | 39.90020 | -1.43114 | 37006 ft | 384 kts | 296° |
| 2026-05-07 21:09 | 39.92629 | -1.49175 | 37014 ft | 384 kts | 296° |
| 2026-05-07 21:09 | 39.95236 | -1.55242 | 37028 ft | 383 kts | 296° |
| 2026-05-07 21:10 | 39.97834 | -1.61299 | 37024 ft | 382 kts | 296° |
| 2026-05-07 21:10 | 40.00417 | -1.67334 | 37025 ft | 382 kts | 295° |
| 2026-05-07 21:11 | 40.03004 | -1.73393 | 37032 ft | 383 kts | 296° |
| 2026-05-07 21:11 | 40.06879 | -1.82487 | 37012 ft | 384 kts | 296° |
| 2026-05-07 21:12 | 40.09466 | -1.88573 | 37023 ft | 384 kts | 296° |
| 2026-05-07 21:12 | 40.12049 | -1.94662 | 37023 ft | 382 kts | 295° |
| 2026-05-07 21:13 | 40.14626 | -2.00742 | 37020 ft | 382 kts | 295° |
| 2026-05-07 21:13 | 40.17214 | -2.06808 | 37009 ft | 382 kts | 295° |
| 2026-05-07 21:14 | 40.19796 | -2.12878 | 37006 ft | 382 kts | 295° |
| 2026-05-07 21:14 | 40.22359 | -2.18957 | 37004 ft | 382 kts | 295° |
| 2026-05-07 21:15 | 40.24913 | -2.25043 | 37032 ft | 384 kts | 296° |
| 2026-05-07 21:15 | 40.27465 | -2.31134 | 36995 ft | 383 kts | 295° |
| 2026-05-07 21:16 | 40.30024 | -2.37249 | 37001 ft | 382 kts | 295° |
| 2026-05-07 21:16 | 40.32576 | -2.43366 | 37000 ft | 382 kts | 295° |
| 2026-05-07 21:17 | 40.35125 | -2.49484 | 36983 ft | 382 kts | 295° |
| 2026-05-07 21:17 | 40.37624 | -2.55620 | 36992 ft | 381 kts | 294° |
| 2026-05-07 21:18 | 40.40054 | -2.61807 | 36981 ft | 382 kts | 294° |
| 2026-05-07 21:18 | 40.42490 | -2.68005 | 36971 ft | 382 kts | 294° |
| 2026-05-07 21:19 | 40.44919 | -2.74200 | 36998 ft | 381 kts | 294° |
| 2026-05-07 21:19 | 40.47339 | -2.80382 | 36984 ft | 382 kts | 294° |
| 2026-05-07 21:20 | 40.49748 | -2.86550 | 36984 ft | 381 kts | 294° |
| 2026-05-07 21:20 | 40.52168 | -2.92759 | 36976 ft | 382 kts | 294° |
| 2026-05-07 21:21 | 40.54584 | -2.98971 | 36975 ft | 382 kts | 294° |
| 2026-05-07 21:21 | 40.57001 | -3.05195 | 36976 ft | 381 kts | 294° |
| 2026-05-07 21:22 | 40.59406 | -3.11406 | 36978 ft | 382 kts | 294° |
| 2026-05-07 21:22 | 40.61805 | -3.17612 | 36983 ft | 382 kts | 293° |
| 2026-05-07 21:23 | 40.64213 | -3.23857 | 36980 ft | 382 kts | 293° |
| 2026-05-07 21:23 | 40.66618 | -3.30106 | 36984 ft | 382 kts | 293° |
| 2026-05-07 21:24 | 40.69017 | -3.36351 | 36981 ft | 382 kts | 293° |
| 2026-05-07 21:24 | 40.71408 | -3.42590 | 36983 ft | 382 kts | 293° |
| 2026-05-07 21:25 | 40.73786 | -3.48809 | 36982 ft | 383 kts | 293° |
| 2026-05-07 21:25 | 40.76185 | -3.55095 | 36976 ft | 383 kts | 293° |
| 2026-05-07 21:26 | 40.78173 | -3.60313 | 36977 ft | 383 kts | 293° |
| 2026-05-07 21:26 | 40.80565 | -3.66605 | 36972 ft | 383 kts | 293° |
| 2026-05-07 21:27 | 40.82950 | -3.72894 | 36980 ft | 383 kts | 292° |
| 2026-05-07 21:27 | 40.85335 | -3.79194 | 36997 ft | 384 kts | 293° |
| 2026-05-07 21:28 | 40.87721 | -3.85516 | 36973 ft | 384 kts | 292° |
| 2026-05-07 21:28 | 40.90112 | -3.91859 | 36966 ft | 385 kts | 292° |
| 2026-05-07 21:29 | 40.92490 | -3.98182 | 36975 ft | 385 kts | 292° |
| 2026-05-07 21:29 | 40.94857 | -4.04489 | 36968 ft | 385 kts | 292° |
| 2026-05-07 21:30 | 40.97236 | -4.10839 | 36965 ft | 385 kts | 292° |
| 2026-05-07 21:30 | 40.99616 | -4.17205 | 36963 ft | 385 kts | 292° |
| 2026-05-07 21:31 | 41.01989 | -4.23575 | 36958 ft | 385 kts | 292° |
| 2026-05-07 21:31 | 41.04335 | -4.29880 | 36949 ft | 385 kts | 292° |
| 2026-05-07 21:32 | 41.06701 | -4.36252 | 36950 ft | 386 kts | 292° |
| 2026-05-07 21:32 | 41.09071 | -4.42646 | 36944 ft | 387 kts | 292° |
| 2026-05-07 21:33 | 41.11442 | -4.49056 | 36947 ft | 387 kts | 292° |
| 2026-05-07 21:33 | 41.13807 | -4.55468 | 36937 ft | 387 kts | 292° |
| 2026-05-07 21:34 | 41.16167 | -4.61880 | 36946 ft | 387 kts | 292° |
| 2026-05-07 21:34 | 41.18529 | -4.68315 | 36941 ft | 387 kts | 292° |
| 2026-05-07 21:35 | 41.20872 | -4.74712 | 36942 ft | 387 kts | 292° |
| 2026-05-07 21:35 | 41.23228 | -4.81159 | 36945 ft | 387 kts | 292° |
| 2026-05-07 21:36 | 41.25574 | -4.87595 | 36955 ft | 388 kts | 292° |
| 2026-05-07 21:36 | 41.27926 | -4.94061 | 36943 ft | 389 kts | 292° |
| 2026-05-07 21:37 | 41.30278 | -5.00544 | 36937 ft | 390 kts | 292° |
| 2026-05-07 21:37 | 41.32633 | -5.07046 | 36942 ft | 390 kts | 292° |
| 2026-05-07 21:38 | 41.34984 | -5.13554 | 36943 ft | 390 kts | 291° |
| 2026-05-07 21:38 | 41.37325 | -5.20051 | 36937 ft | 390 kts | 291° |
| 2026-05-07 21:39 | 41.39653 | -5.26522 | 36934 ft | 389 kts | 290° |
| 2026-05-07 21:39 | 41.40439 | -5.29784 | 36922 ft | 382 kts | 275° |
| 2026-05-07 21:39 | 41.40461 | -5.33359 | 36951 ft | 381 kts | 266° |
| 2026-05-07 21:40 | 41.40861 | -5.40398 | 36936 ft | 384 kts | 276° |
| 2026-05-07 21:40 | 41.41578 | -5.47459 | 36932 ft | 384 kts | 275° |
| 2026-05-07 21:41 | 41.42218 | -5.54520 | 36935 ft | 384 kts | 275° |
| 2026-05-07 21:41 | 41.42827 | -5.61576 | 36943 ft | 384 kts | 275° |
| 2026-05-07 21:42 | 41.43426 | -5.68611 | 36924 ft | 376 kts | 275° |
| 2026-05-07 21:42 | 41.44000 | -5.75429 | 36927 ft | 371 kts | 274° |
| 2026-05-07 21:43 | 41.44573 | -5.82254 | 36923 ft | 371 kts | 274° |
| 2026-05-07 21:43 | 41.45143 | -5.89098 | 36928 ft | 371 kts | 274° |
| 2026-05-07 21:44 | 41.45423 | -5.92480 | 36529 ft | 366 kts | 274° |
| 2026-05-07 21:44 | 41.45702 | -5.95867 | 35912 ft | 366 kts | 274° |
| 2026-05-07 21:44 | 41.45977 | -5.99217 | 35462 ft | 363 kts | 274° |
| 2026-05-07 21:44 | 41.46250 | -6.02555 | 34960 ft | 361 kts | 274° |
| 2026-05-07 21:45 | 41.46519 | -6.05844 | 34492 ft | 359 kts | 274° |
| 2026-05-07 21:45 | 41.46788 | -6.09150 | 34031 ft | 357 kts | 274° |
| 2026-05-07 21:45 | 41.47053 | -6.12430 | 33449 ft | 357 kts | 274° |
| 2026-05-07 21:45 | 41.47318 | -6.15708 | 32898 ft | 356 kts | 274° |
| 2026-05-07 21:46 | 41.47582 | -6.18989 | 32389 ft | 355 kts | 274° |
| 2026-05-07 21:46 | 41.47844 | -6.22253 | 31890 ft | 354 kts | 274° |
| 2026-05-07 21:46 | 41.48103 | -6.25491 | 31610 ft | 346 kts | 273° |
| 2026-05-07 21:46 | 41.48028 | -6.28620 | 31411 ft | 334 kts | 256° |
| 2026-05-07 21:47 | 41.47399 | -6.31550 | 31254 ft | 326 kts | 254° |
| 2026-05-07 21:47 | 41.46929 | -6.34540 | 31126 ft | 335 kts | 258° |
| 2026-05-07 21:47 | 41.46458 | -6.37630 | 31001 ft | 344 kts | 257° |
| 2026-05-07 21:47 | 41.45944 | -6.40731 | 30868 ft | 348 kts | 257° |
| 2026-05-07 21:48 | 41.45401 | -6.43879 | 30745 ft | 348 kts | 256° |
| 2026-05-07 21:48 | 41.44837 | -6.47069 | 30613 ft | 349 kts | 256° |
| 2026-05-07 21:48 | 41.44274 | -6.50198 | 30401 ft | 349 kts | 255° |
| 2026-05-07 21:48 | 41.43706 | -6.53335 | 30011 ft | 347 kts | 255° |
| 2026-05-07 21:49 | 41.43136 | -6.56462 | 29469 ft | 347 kts | 255° |
| 2026-05-07 21:49 | 41.42539 | -6.59560 | 28963 ft | 345 kts | 252° |
| 2026-05-07 21:49 | 41.41853 | -6.62659 | 28179 ft | 352 kts | 253° |
| 2026-05-07 21:49 | 41.41171 | -6.65817 | 27497 ft | 356 kts | 253° |
| 2026-05-07 21:50 | 41.40501 | -6.68938 | 27081 ft | 354 kts | 253° |
| 2026-05-07 21:50 | 41.39828 | -6.72070 | 26703 ft | 350 kts | 253° |
| 2026-05-07 21:50 | 41.39157 | -6.75181 | 26306 ft | 348 kts | 253° |
| 2026-05-07 21:50 | 41.38492 | -6.78265 | 25920 ft | 346 kts | 252° |
| 2026-05-07 21:51 | 41.37832 | -6.81320 | 25525 ft | 344 kts | 252° |
| 2026-05-07 21:51 | 41.37173 | -6.84367 | 25149 ft | 342 kts | 252° |
| 2026-05-07 21:51 | 41.36513 | -6.87405 | 24761 ft | 341 kts | 252° |
| 2026-05-07 21:51 | 41.35857 | -6.90434 | 24379 ft | 340 kts | 252° |
| 2026-05-07 21:52 | 41.35201 | -6.93453 | 23999 ft | 339 kts | 251° |
| 2026-05-07 21:52 | 41.34546 | -6.96461 | 23631 ft | 337 kts | 251° |
| 2026-05-07 21:52 | 41.33895 | -6.99450 | 23212 ft | 336 kts | 251° |
| 2026-05-07 21:52 | 41.33245 | -7.02429 | 22803 ft | 334 kts | 251° |
| 2026-05-07 21:53 | 41.32592 | -7.05418 | 22430 ft | 331 kts | 251° |
| 2026-05-07 21:53 | 41.31960 | -7.08309 | 22077 ft | 328 kts | 251° |
| 2026-05-07 21:53 | 41.31324 | -7.11211 | 21724 ft | 325 kts | 251° |
| 2026-05-07 21:53 | 41.30697 | -7.14068 | 21379 ft | 322 kts | 251° |
| 2026-05-07 21:54 | 41.30072 | -7.16915 | 21039 ft | 319 kts | 251° |
| 2026-05-07 21:54 | 41.29452 | -7.19736 | 20702 ft | 316 kts | 251° |
| 2026-05-07 21:54 | 41.28836 | -7.22529 | 20380 ft | 314 kts | 250° |
| 2026-05-07 21:54 | 41.28224 | -7.25302 | 20046 ft | 311 kts | 250° |
| 2026-05-07 21:55 | 41.27618 | -7.28048 | 19716 ft | 309 kts | 250° |
| 2026-05-07 21:55 | 41.27019 | -7.30758 | 19403 ft | 307 kts | 250° |
| 2026-05-07 21:55 | 41.26429 | -7.33422 | 19081 ft | 305 kts | 250° |
| 2026-05-07 21:55 | 41.25832 | -7.36115 | 18765 ft | 303 kts | 250° |
| 2026-05-07 21:56 | 41.25231 | -7.38824 | 18440 ft | 308 kts | 250° |
| 2026-05-07 21:56 | 41.24620 | -7.41572 | 18089 ft | 313 kts | 250° |
| 2026-05-07 21:56 | 41.24004 | -7.44342 | 17724 ft | 314 kts | 250° |
| 2026-05-07 21:56 | 41.23395 | -7.47080 | 17384 ft | 312 kts | 250° |
| 2026-05-07 21:57 | 41.22788 | -7.49801 | 17057 ft | 309 kts | 250° |
| 2026-05-07 21:57 | 41.22186 | -7.52498 | 16732 ft | 306 kts | 250° |
| 2026-05-07 21:57 | 41.21583 | -7.55196 | 16411 ft | 303 kts | 250° |
| 2026-05-07 21:57 | 41.20992 | -7.57837 | 16095 ft | 301 kts | 250° |
| 2026-05-07 21:58 | 41.20397 | -7.60488 | 15791 ft | 298 kts | 250° |
| 2026-05-07 21:58 | 41.19798 | -7.63156 | 15468 ft | 296 kts | 249° |
| 2026-05-07 21:58 | 41.19221 | -7.65730 | 15152 ft | 294 kts | 249° |
| 2026-05-07 21:58 | 41.18631 | -7.68354 | 14846 ft | 292 kts | 249° |
| 2026-05-07 21:59 | 41.18059 | -7.70893 | 14544 ft | 290 kts | 249° |
| 2026-05-07 21:59 | 41.17492 | -7.73403 | 14231 ft | 289 kts | 249° |
| 2026-05-07 21:59 | 41.16918 | -7.75949 | 13921 ft | 287 kts | 249° |
| 2026-05-07 21:59 | 41.16350 | -7.78469 | 13616 ft | 285 kts | 249° |
| 2026-05-07 22:00 | 41.15779 | -7.80992 | 13270 ft | 284 kts | 249° |
| 2026-05-07 22:00 | 41.15211 | -7.83496 | 12962 ft | 282 kts | 249° |
| 2026-05-07 22:00 | 41.14649 | -7.85975 | 12637 ft | 279 kts | 249° |
| 2026-05-07 22:00 | 41.14100 | -7.88395 | 12357 ft | 275 kts | 249° |
| 2026-05-07 22:01 | 41.13550 | -7.90818 | 12084 ft | 273 kts | 249° |
| 2026-05-07 22:01 | 41.13003 | -7.93226 | 11778 ft | 271 kts | 249° |
| 2026-05-07 22:01 | 41.12460 | -7.95609 | 11499 ft | 270 kts | 248° |
| 2026-05-07 22:01 | 41.11912 | -7.98010 | 11210 ft | 274 kts | 248° |
| 2026-05-07 22:02 | 41.11354 | -8.00453 | 10908 ft | 278 kts | 248° |
| 2026-05-07 22:02 | 41.10792 | -8.02915 | 10605 ft | 278 kts | 248° |
| 2026-05-07 22:02 | 41.10231 | -8.05367 | 10316 ft | 277 kts | 248° |
| 2026-05-07 22:02 | 41.09674 | -8.07801 | 10024 ft | 275 kts | 248° |
| 2026-05-07 22:03 | 41.09123 | -8.10206 | 9749 ft | 272 kts | 248° |
| 2026-05-07 22:03 | 41.08574 | -8.12600 | 9427 ft | 270 kts | 248° |
| 2026-05-07 22:03 | 41.08030 | -8.14961 | 9123 ft | 265 kts | 248° |
| 2026-05-07 22:03 | 41.07498 | -8.17277 | 8865 ft | 261 kts | 248° |
| 2026-05-07 22:04 | 41.06971 | -8.19565 | 8567 ft | 257 kts | 249° |
| 2026-05-07 22:04 | 41.06459 | -8.21793 | 8310 ft | 254 kts | 249° |
| 2026-05-07 22:04 | 41.05942 | -8.24033 | 8055 ft | 256 kts | 249° |
| 2026-05-07 22:04 | 41.05413 | -8.26311 | 7750 ft | 261 kts | 249° |
| 2026-05-07 22:05 | 41.04880 | -8.28626 | 7482 ft | 264 kts | 249° |
| 2026-05-07 22:05 | 41.04341 | -8.30955 | 7189 ft | 264 kts | 249° |
| 2026-05-07 22:05 | 41.03805 | -8.33269 | 6908 ft | 263 kts | 249° |
| 2026-05-07 22:05 | 41.03270 | -8.35582 | 6506 ft | 264 kts | 249° |
| 2026-05-07 22:06 | 41.02727 | -8.37918 | 6084 ft | 266 kts | 249° |
| 2026-05-07 22:06 | 41.02193 | -8.40217 | 5957 ft | 257 kts | 250° |
| 2026-05-07 22:06 | 41.01671 | -8.42466 | 5954 ft | 255 kts | 249° |
| 2026-05-07 22:06 | 41.01147 | -8.44722 | 5748 ft | 257 kts | 250° |
| 2026-05-07 22:07 | 41.00618 | -8.46985 | 5283 ft | 264 kts | 250° |
| 2026-05-07 22:07 | 41.00147 | -8.49380 | 4921 ft | 266 kts | 257° |
| 2026-05-07 22:07 | 40.99803 | -8.51755 | 4730 ft | 258 kts | 257° |
| 2026-05-07 22:07 | 40.99459 | -8.54059 | 4593 ft | 255 kts | 257° |
| 2026-05-07 22:08 | 40.99229 | -8.55577 | 4520 ft | 254 kts | 257° |
| 2026-05-07 22:08 | 40.99078 | -8.57904 | 4427 ft | 256 kts | 276° |
| 2026-05-07 22:08 | 40.99675 | -8.60111 | 4347 ft | 258 kts | 302° |
| 2026-05-07 22:08 | 41.01437 | -8.62115 | 4174 ft | 254 kts | 336° |
| 2026-05-07 22:09 | 41.03126 | -8.62644 | 4002 ft | 247 kts | 352° |
| 2026-05-07 22:09 | 41.04267 | -8.62853 | 3854 ft | 244 kts | 351° |
| 2026-05-07 22:09 | 41.05932 | -8.63217 | 3605 ft | 241 kts | 349° |
| 2026-05-07 22:09 | 41.07571 | -8.63629 | 3339 ft | 237 kts | 349° |
| 2026-05-07 22:10 | 41.09130 | -8.64031 | 3100 ft | 221 kts | 349° |
| 2026-05-07 22:10 | 41.10554 | -8.64402 | 2820 ft | 210 kts | 349° |
| 2026-05-07 22:10 | 41.11974 | -8.64772 | 2543 ft | 199 kts | 349° |
| 2026-05-07 22:10 | 41.13298 | -8.65118 | 2295 ft | 186 kts | 349° |
| 2026-05-07 22:11 | 41.14481 | -8.65427 | 2050 ft | 169 kts | 349° |
| 2026-05-07 22:11 | 41.15623 | -8.65724 | 1856 ft | 163 kts | 349° |
| 2026-05-07 22:11 | 41.16694 | -8.66004 | 1623 ft | 154 kts | 349° |
| 2026-05-07 22:11 | 41.17736 | -8.66276 | 1405 ft | 152 kts | 349° |
| 2026-05-07 22:12 | 41.18792 | -8.66559 | 1209 ft | 158 kts | 348° |
| 2026-05-07 22:12 | 41.19842 | -8.66825 | 1003 ft | 152 kts | 349° |
| 2026-05-07 22:12 | 41.20886 | -8.67115 | 769 ft | 151 kts | 349° |
| 2026-05-07 22:12 | 41.21900 | -8.67373 | 563 ft | 148 kts | 351° |
| 2026-05-07 22:13 | 41.22908 | -8.67633 | 370 ft | 144 kts | 349° |
| 2026-05-07 22:13 | 41.23857 | -8.67877 | 227 ft | 130 kts | 350° |
| 2026-05-07 22:13 | 41.24501 | -8.68044 | 210 ft | 62 kts | 348° |
| 2026-05-07 22:13 | 41.24801 | -8.68124 | 205 ft | 41 kts | 349° |
| 2026-05-07 22:14 | 41.25096 | -8.68169 | 189 ft | 39 kts | 5° |
| 2026-05-07 22:14 | 41.25287 | -8.68084 | 182 ft | 9 kts | 51° |
| 2026-05-07 22:14 | 41.25290 | -8.68051 | 183 ft | 0 kts | 116° |
| 2026-05-07 22:14 | 41.25283 | -8.68038 | 183 ft | 5 kts | 127° |
| 2026-05-07 22:15 | 41.25226 | -8.68004 | 190 ft | 13 kts | 168° |
| 2026-05-07 22:15 | 41.25114 | -8.67974 | 192 ft | 19 kts | 168° |
| 2026-05-07 22:15 | 41.24992 | -8.67941 | 195 ft | 13 kts | 169° |
| 2026-05-07 22:15 | 41.24878 | -8.67907 | 205 ft | 20 kts | 159° |
| 2026-05-07 22:16 | 41.24759 | -8.67831 | 212 ft | 21 kts | 162° |
| 2026-05-07 22:16 | 41.24593 | -8.67784 | 217 ft | 27 kts | 169° |
| 2026-05-07 22:16 | 41.24415 | -8.67737 | 227 ft | 20 kts | 169° |
| 2026-05-07 22:16 | 41.24304 | -8.67696 | 235 ft | 18 kts | 148° |
| 2026-05-07 22:17 | 41.24200 | -8.67572 | 240 ft | 23 kts | 162° |
| 2026-05-07 22:17 | 41.24045 | -8.67533 | 240 ft | 15 kts | 169° |
| 2026-05-07 22:17 | 41.23964 | -8.67514 | 240 ft | 16 kts | 169° |
| 2026-05-07 22:17 | 41.23832 | -8.67479 | 241 ft | 23 kts | 169° |
| 2026-05-07 22:18 | 41.23754 | -8.67441 | 241 ft | 3 kts | 114° |
| 2026-05-07 22:18 | 41.23789 | -8.67371 | 246 ft | 1 kts | 51° |
| 2026-05-07 22:18 | 41.23793 | -8.67366 | 246 ft | 0 kts | 49° |